CW3583 Santander ES current weather conditions

sailwx.info

Wind from 200 at 1 knots gusting 2

Air temperature 10.0° C
Dewpoint 7.4° C

Last reported at 2020-Jan-29 01:03 UTC.
Time now 2020-Jan-29 02:09 UTC

Location: N 43°28' W 003°47'.
View on Google Maps.

See reports from other nearby stations

  
Tides and Currents Weather Stations Pressure Air Temp Water Temp Dewpoint Dewpoint Depression Visibility Wind Speed Wind Dir Waves Ship Positions
date/time (UTC)wind fromknots sea level pressurealtimeterstation pressurevisibilityair tempwater tempwave heightnotes
2020-Jan-29 01:03 200 1 gusting 2 10.0
2020-Jan-29 00:53 198 0 gusting 2 10.0
2020-Jan-29 00:48 198 1 gusting 2 10.0
2020-Jan-29 00:43 195 1 gusting 4 10.0
2020-Jan-29 00:38 183 2 gusting 4 10.0
2020-Jan-29 00:28 214 0 gusting 2 10.0
2020-Jan-29 00:08 216 1 gusting 2 10.0
2020-Jan-29 00:03 223 1 gusting 4 10.0
2020-Jan-28 23:58 217 1 gusting 2 10.0
2020-Jan-28 23:48 231 0 gusting 2 10.0
2020-Jan-28 23:43 223 2 gusting 5 10.0
2020-Jan-28 23:38 209 2 gusting 4 10.0
2020-Jan-28 23:28 216 2 gusting 4 10.0
2020-Jan-28 23:13 221 2 gusting 5 10.0
2020-Jan-28 23:08 214 2 gusting 5 10.0
2020-Jan-28 23:03 227 3 gusting 5 10.0
2020-Jan-28 22:58 217 2 gusting 5 9.4
2020-Jan-28 22:48 221 3 gusting 5 9.4
2020-Jan-28 22:28 215 2 gusting 4 10.0
2020-Jan-28 22:23 209 2 gusting 2 10.0
2020-Jan-28 22:18 212 2 gusting 4 10.0
2020-Jan-28 22:08 213 2 gusting 5 10.0
2020-Jan-28 22:03 212 2 gusting 5 10.0
2020-Jan-28 21:58 205 1 gusting 2 10.6
2020-Jan-28 21:48 211 2 gusting 4 10.6
2020-Jan-28 21:43 210 2 gusting 4 10.6
2020-Jan-28 21:28 214 3 gusting 5 10.6
2020-Jan-28 21:13 221 2 gusting 5 10.6
2020-Jan-28 21:08 222 2 gusting 5 10.6
2020-Jan-28 21:03 231 2 gusting 6 10.6
2020-Jan-28 20:58 227 2 gusting 5 10.6
2020-Jan-28 20:53 218 2 gusting 4 10.6
2020-Jan-28 20:48 219 2 gusting 4 11.1
2020-Jan-28 20:43 229 3 gusting 6 11.1
2020-Jan-28 20:38 211 2 gusting 5 11.1
2020-Jan-28 20:33 217 2 gusting 4 11.1
2020-Jan-28 20:28 235 2 gusting 6 11.1
2020-Jan-28 20:23 229 2 gusting 5 11.1
2020-Jan-28 20:18 237 2 gusting 6 11.1
2020-Jan-28 20:08 218 2 gusting 4 11.1
2020-Jan-28 20:03 219 1 gusting 2 11.7
2020-Jan-28 19:53 223 1 gusting 2 11.7
2020-Jan-28 19:33 225 2 gusting 4 11.7
2020-Jan-28 19:23 225 1 gusting 4 11.7
2020-Jan-28 19:13 214 2 gusting 4 11.7
2020-Jan-28 19:08 213 2 gusting 4 11.7
2020-Jan-28 18:58 212 1 gusting 2 12.2
2020-Jan-28 18:53 195 2 gusting 4 12.2
2020-Jan-28 18:48 204 2 gusting 4 12.2
2020-Jan-28 18:43 206 1 gusting 2 12.2
2020-Jan-28 18:33 214 1 gusting 2 12.2
2020-Jan-28 18:28 214 0 gusting 2 12.2
2020-Jan-28 18:23 214 1 gusting 2 12.2
2020-Jan-28 18:18 214 1 gusting 2 12.8
2020-Jan-28 18:13 214 1 gusting 2 12.8
2020-Jan-28 18:08 214 1 gusting 2 12.8
2020-Jan-28 17:58 244 1 gusting 5 12.8
2020-Jan-28 17:53 244 1 gusting 4 12.8
2020-Jan-28 17:48 238 1 gusting 4 12.8
2020-Jan-28 17:43 242 1 gusting 6 12.8
2020-Jan-28 17:28 228 2 gusting 6 12.8
2020-Jan-28 17:23 262 4 gusting 7 12.8
2020-Jan-28 17:18 275 3 gusting 6 12.8
2020-Jan-28 17:13 243 3 gusting 6 12.8
2020-Jan-28 17:08 272 1 gusting 4 12.8
2020-Jan-28 17:03 262 2 gusting 6 12.8
2020-Jan-28 16:48 277 5 gusting 7 13.3
2020-Jan-28 16:43 276 2 gusting 5 13.3
2020-Jan-28 16:38 277 4 gusting 10 13.3
2020-Jan-28 16:33 271 5 gusting 7 13.3
2020-Jan-28 16:28 280 5 gusting 7 13.3
2020-Jan-28 16:18 281 4 gusting 6 13.3
2020-Jan-28 16:13 278 4 gusting 7 13.3
2020-Jan-28 16:08 263 5 gusting 8 13.3
2020-Jan-28 16:03 274 5 gusting 8 13.9
2020-Jan-28 15:58 282 5 gusting 8 13.9
2020-Jan-28 15:53 257 4 gusting 8 13.3
2020-Jan-28 15:48 268 6 gusting 12 13.3
2020-Jan-28 15:43 288 5 gusting 11 13.3
2020-Jan-28 15:28 272 7 gusting 11 13.9
2020-Jan-28 15:23 279 7 gusting 11 13.9
2020-Jan-28 15:13 284 6 gusting 10 13.9
2020-Jan-28 15:08 296 7 gusting 12 13.9
2020-Jan-28 15:03 291 6 gusting 12 13.9
2020-Jan-28 14:58 289 7 gusting 11 13.9
2020-Jan-28 14:53 297 7 gusting 11 13.9
2020-Jan-28 14:48 285 5 gusting 10 13.9
2020-Jan-28 14:43 294 4 gusting 12 13.9
2020-Jan-28 14:38 314 6 gusting 12 13.9
2020-Jan-28 14:33 292 8 gusting 13 13.9
2020-Jan-28 14:28 285 8 gusting 15 13.9
2020-Jan-28 14:23 281 8 gusting 15 13.9
2020-Jan-28 14:08 284 10 gusting 13 13.9
2020-Jan-28 13:53 276 8 gusting 17 13.9
2020-Jan-28 13:48 278 12 gusting 17 13.9
2020-Jan-28 13:43 280 6 gusting 15 14.4
2020-Jan-28 13:38 294 8 gusting 14 14.4
2020-Jan-28 13:28 275 6 gusting 12 14.4
2020-Jan-28 13:23 302 6 gusting 14 13.9
2020-Jan-28 13:18 303 8 gusting 17 13.9
2020-Jan-28 13:13 275 11 gusting 19 14.4
2020-Jan-28 13:08 290 7 gusting 17 14.4
2020-Jan-28 12:58 295 10 gusting 17 13.9
2020-Jan-28 12:48 285 5 gusting 13 14.4
2020-Jan-28 12:43 270 9 gusting 15 14.4
2020-Jan-28 12:28 268 4 gusting 14 14.4
2020-Jan-28 12:23 270 4 gusting 11 14.4
2020-Jan-28 12:18 250 7 gusting 13 14.4
2020-Jan-28 12:13 270 7 gusting 13 14.4
2020-Jan-28 12:08 275 7 gusting 13 14.4
2020-Jan-28 11:53 290 4 gusting 11 14.4
2020-Jan-28 11:48 259 6 gusting 10 14.4
2020-Jan-28 11:43 240 2 gusting 5 14.4
2020-Jan-28 11:33 227 4 gusting 7 14.4
2020-Jan-28 11:28 210 4 gusting 6 14.4
2020-Jan-28 11:23 236 4 gusting 6 14.4
2020-Jan-28 11:18 211 3 gusting 6 13.9
2020-Jan-28 11:13 211 3 gusting 6 13.9
2020-Jan-28 11:08 238 4 gusting 6 13.9
2020-Jan-28 11:03 243 4 gusting 8 13.9
2020-Jan-28 10:58 244 4 gusting 10 13.9
2020-Jan-28 10:53 227 5 gusting 11 13.9
2020-Jan-28 10:48 210 5 gusting 7 13.3
2020-Jan-28 10:43 230 5 gusting 7 13.3
2020-Jan-28 10:38 212 2 gusting 6 13.3
2020-Jan-28 10:23 213 3 gusting 7 13.3
2020-Jan-28 10:18 217 3 gusting 6 13.3
2020-Jan-28 10:08 281 5 gusting 10 13.3
2020-Jan-28 10:03 243 2 gusting 6 13.3
2020-Jan-28 09:58 197 1 gusting 5 13.3
2020-Jan-28 09:53 231 2 gusting 4 13.3
2020-Jan-28 09:43 218 2 gusting 10 12.8
2020-Jan-28 09:38 269 2 gusting 4 12.8
2020-Jan-28 09:33 289 5 gusting 8 12.8
2020-Jan-28 09:23 228 4 gusting 11 12.8
2020-Jan-28 09:18 280 4 gusting 8 12.2
2020-Jan-28 09:08 258 3 gusting 8 12.2
2020-Jan-28 08:58 247 4 gusting 7 12.2
2020-Jan-28 08:53 222 2 gusting 5 12.2
2020-Jan-28 08:48 228 2 gusting 6 12.2
2020-Jan-28 08:43 216 1 gusting 4 12.2
2020-Jan-28 08:28 207 2 gusting 8 12.2
2020-Jan-28 08:18 222 4 gusting 6 12.2
2020-Jan-28 08:13 238 2 gusting 7 12.2
2020-Jan-28 08:08 238 3 gusting 8 12.2
2020-Jan-28 08:03 233 5 gusting 8 12.2
2020-Jan-28 07:58 250 5 gusting 10 12.8
2020-Jan-28 07:43 244 5 gusting 12 12.8
2020-Jan-28 07:33 280 5 gusting 12 12.8
2020-Jan-28 07:28 265 6 gusting 12 12.8
2020-Jan-28 07:23 254 4 gusting 10 12.8
2020-Jan-28 07:18 264 5 gusting 10 12.8
2020-Jan-28 07:13 268 10 gusting 14 12.8
2020-Jan-28 07:03 276 6 gusting 13 12.8
2020-Jan-28 06:58 274 9 gusting 18 12.8
2020-Jan-28 06:53 273 13 gusting 19 12.8
2020-Jan-28 06:48 238 10 gusting 19 12.8
2020-Jan-28 06:43 286 6 gusting 17 12.8
2020-Jan-28 06:38 275 7 gusting 19 12.8
2020-Jan-28 06:33 286 11 gusting 17 12.8
2020-Jan-28 06:28 259 8 gusting 13 12.8
2020-Jan-28 06:23 287 6 gusting 13 12.8
2020-Jan-28 06:08 265 6 gusting 12 12.8
2020-Jan-28 06:03 272 6 gusting 10 12.8
2020-Jan-28 05:53 276 5 gusting 10 12.8
2020-Jan-28 05:48 265 7 gusting 11 12.8
2020-Jan-28 05:43 267 6 gusting 10 12.8
2020-Jan-28 05:38 266 5 gusting 13 12.8
2020-Jan-28 05:33 268 6 gusting 13 12.8
2020-Jan-28 05:28 274 5 gusting 8 12.8
2020-Jan-28 05:23 255 4 gusting 10 12.8
2020-Jan-28 05:18 284 4 gusting 8 12.8
2020-Jan-28 05:08 278 4 gusting 6 12.8
2020-Jan-28 05:03 250 5 gusting 6 12.8
2020-Jan-28 04:58 282 6 gusting 8 12.8
2020-Jan-28 04:53 279 4 gusting 6 12.8
2020-Jan-28 04:43 241 3 gusting 10 12.8
2020-Jan-28 04:38 243 3 gusting 10 12.8
2020-Jan-28 04:33 216 4 gusting 10 12.8
2020-Jan-28 04:28 244 6 gusting 10 12.8
2020-Jan-28 04:23 270 5 gusting 8 12.8
2020-Jan-28 04:18 225 6 gusting 10 12.8
2020-Jan-28 04:13 238 5 gusting 15 12.8
2020-Jan-28 04:08 247 6 gusting 10 12.8
2020-Jan-28 03:58 218 4 gusting 6 12.8
2020-Jan-28 03:53 252 6 gusting 8 12.8
2020-Jan-28 03:43 244 8 gusting 15 12.8
2020-Jan-28 03:38 256 6 gusting 10 12.8
2020-Jan-28 03:33 250 6 gusting 11 12.8
2020-Jan-28 03:23 266 6 gusting 13 12.8
2020-Jan-28 03:18 290 6 gusting 13 12.8
2020-Jan-28 03:13 268 6 gusting 10 12.8
2020-Jan-28 03:08 280 12 gusting 18 12.8
2020-Jan-28 03:03 275 8 gusting 18 12.8
2020-Jan-28 02:58 280 7 gusting 17 12.8
2020-Jan-28 02:53 286 7 gusting 18 12.8
2020-Jan-28 02:48 289 9 gusting 14 12.8
2020-Jan-28 02:43 271 7 gusting 19 12.8
2020-Jan-28 02:38 284 6 gusting 13 12.2
2020-Jan-28 02:33 269 7 gusting 14 12.2
2020-Jan-28 02:23 275 6 gusting 14 12.2
2020-Jan-28 02:18 286 6 gusting 12 12.2
2020-Jan-28 01:58 258 6 gusting 12 11.7
2020-Jan-28 01:43 260 7 gusting 15 11.7
2020-Jan-28 01:33 272 10 gusting 17 11.7
2020-Jan-28 01:28 267 7 gusting 13 11.7
2020-Jan-28 01:18 203 7 gusting 18 11.7
2020-Jan-28 01:13 272 6 gusting 17 11.7
2020-Jan-28 01:08 282 11 gusting 19 11.7
2020-Jan-28 00:53 276 11 gusting 21 11.7
2020-Jan-28 00:43 269 11 gusting 17 11.7
2020-Jan-28 00:38 275 9 gusting 19 11.7
2020-Jan-28 00:33 275 10 gusting 18 11.7
2020-Jan-28 00:28 266 8 gusting 17 11.7
2020-Jan-28 00:23 279 11 gusting 22 11.7
2020-Jan-28 00:13 282 8 gusting 17 12.2
2020-Jan-28 00:08 314 4 gusting 10 12.8
2020-Jan-28 00:03 275 6 gusting 11 12.2
2020-Jan-27 23:58 284 6 gusting 11 12.2
2020-Jan-27 23:53 296 4 gusting 6 12.2
2020-Jan-27 23:48 287 5 gusting 7 12.2
2020-Jan-27 23:43 276 5 gusting 6 12.2
2020-Jan-27 23:38 267 4 gusting 6 12.2
2020-Jan-27 23:33 287 1 gusting 5 12.2
2020-Jan-27 23:28 243 1 gusting 2 12.2
2020-Jan-27 23:23 243 0 gusting 2 12.8
2020-Jan-27 23:18 264 2 gusting 4 12.2
2020-Jan-27 23:13 213 1 gusting 2 12.8
2020-Jan-27 23:08 215 1 gusting 2 12.8
2020-Jan-27 23:03 227 1 gusting 2 12.2
2020-Jan-27 22:48 175 1 gusting 2 12.8
2020-Jan-27 22:38 166 1 gusting 2 12.8
2020-Jan-27 22:28 281 0 gusting 1 12.8
2020-Jan-27 22:08 179 2 gusting 4 12.8
2020-Jan-27 22:03 180 1 gusting 2 12.8
2020-Jan-27 21:58 253 1 gusting 2 12.8
2020-Jan-27 21:53 263 1 gusting 2 12.8
2020-Jan-27 21:28 287 4 gusting 5 12.8
2020-Jan-27 21:23 290 2 gusting 6 12.8
2020-Jan-27 21:03 301 5 gusting 7 12.8
2020-Jan-27 20:58 305 4 gusting 6 12.8
2020-Jan-27 20:48 318 3 gusting 6 13.3
2020-Jan-27 20:43 323 6 gusting 10 13.3
2020-Jan-27 20:38 325 7 gusting 13 13.3
2020-Jan-27 20:33 303 7 gusting 10 13.3
2020-Jan-27 20:28 327 6 gusting 11 13.9
2020-Jan-27 20:23 332 7 gusting 11 13.9
2020-Jan-27 20:18 337 6 gusting 10 14.4
2020-Jan-27 20:13 321 8 gusting 14 14.4
2020-Jan-27 20:08 354 6 gusting 11 14.4
2020-Jan-27 20:03 315 4 gusting 5 15.0
2020-Jan-27 19:53 303 2 gusting 4 14.4
2020-Jan-27 19:48 318 1 gusting 4 14.4
2020-Jan-27 19:38 277 1 gusting 2 14.4
2020-Jan-27 19:33 277 0 gusting 2 14.4
2020-Jan-27 19:28 268 2 gusting 2 15.0
2020-Jan-27 19:23 248 2 gusting 6 15.0
2020-Jan-27 19:18 269 4 gusting 6 15.0
2020-Jan-27 19:13 283 4 gusting 7 15.6
2020-Jan-27 19:08 322 5 gusting 10 16.1
2020-Jan-27 18:58 281 4 gusting 6 16.1
2020-Jan-27 18:53 248 3 gusting 5 16.1
2020-Jan-27 18:48 264 2 gusting 6 16.1
2020-Jan-27 18:43 265 3 gusting 8 16.1
2020-Jan-27 18:38 232 3 gusting 6 16.1
2020-Jan-27 18:33 244 4 gusting 6 16.1
2020-Jan-27 18:23 230 4 gusting 7 16.1
2020-Jan-27 18:18 206 3 gusting 6 16.1
2020-Jan-27 18:13 236 4 gusting 7 16.1
2020-Jan-27 18:08 215 2 gusting 6 16.1
2020-Jan-27 17:53 212 1 gusting 6 15.6
2020-Jan-27 17:48 256 2 gusting 6 15.6
2020-Jan-27 17:43 268 2 gusting 2 15.6
2020-Jan-27 17:33 216 2 gusting 6 15.6
2020-Jan-27 17:28 231 2 gusting 5 15.0
2020-Jan-27 17:13 165 1 gusting 2 15.0
2020-Jan-27 17:08 126 1 gusting 2 14.4
2020-Jan-27 17:03 121 14.4
2020-Jan-27 16:58 121 0 gusting 1 14.4
2020-Jan-27 16:48 121 14.4
2020-Jan-27 16:43 121 0 gusting 1 14.4
2020-Jan-27 16:38 121 14.4
2020-Jan-27 16:33 121 0 gusting 1 15.0
2020-Jan-27 16:28 121 0 gusting 1 15.0
2020-Jan-27 16:23 121 1 gusting 1 15.0
2020-Jan-27 16:18 121 0 gusting 1 15.0
2020-Jan-27 16:03 121 0 gusting 4 15.0
2020-Jan-27 15:58 125 1 gusting 2 15.0
2020-Jan-27 15:53 125 0 gusting 2 15.0
2020-Jan-27 15:48 125 1 gusting 2 15.0
2020-Jan-27 15:43 137 0 gusting 1 15.0
2020-Jan-27 15:33 138 0 gusting 1 14.4
2020-Jan-27 15:28 141 1 gusting 2 14.4
2020-Jan-27 15:18 133 1 gusting 4 13.9
2020-Jan-27 15:13 134 1 gusting 5 13.9
2020-Jan-27 15:03 113 1 gusting 2 13.3
2020-Jan-27 14:53 096 13.3
2020-Jan-27 14:38 095 0 gusting 1 13.3
2020-Jan-27 14:33 095 0 gusting 1 13.3
2020-Jan-27 14:28 095 0 gusting 1 13.3
2020-Jan-27 14:18 038 0 gusting 2 13.3
2020-Jan-27 14:08 038 13.3
2020-Jan-27 14:03 034 0 gusting 0 13.3
2020-Jan-27 13:58 033 0 gusting 1 13.3
2020-Jan-27 13:53 033 0 gusting 1 13.3
2020-Jan-27 13:48 033 13.3
2020-Jan-27 13:43 033 1 gusting 2 13.9
2020-Jan-27 13:33 038 1 gusting 2 13.9
2020-Jan-27 13:28 038 1 gusting 2 13.3
2020-Jan-27 13:23 038 0 gusting 2 13.3
2020-Jan-27 13:18 038 0 gusting 1 13.3
2020-Jan-27 13:13 038 13.3
2020-Jan-27 13:08 038 0 gusting 1 13.3
2020-Jan-27 13:03 038 1 gusting 2 13.3
2020-Jan-27 12:58 038 0 gusting 2 13.3
2020-Jan-27 12:48 177 0 gusting 2 13.3
2020-Jan-27 12:43 194 1 gusting 2 13.3
2020-Jan-27 12:38 201 0 gusting 1 13.3
2020-Jan-27 12:33 201 0 gusting 0 13.3
2020-Jan-27 12:28 201 13.3
2020-Jan-27 12:23 201 0 gusting 1 13.3
2020-Jan-27 12:18 201 0 gusting 1 13.3
2020-Jan-27 12:13 200 0 gusting 0 13.3
2020-Jan-27 12:08 200 0 gusting 1 13.3
2020-Jan-27 11:58 200 0 gusting 1 13.3
2020-Jan-27 11:53 200 0 gusting 1 13.3
2020-Jan-27 11:43 200 0 gusting 1 12.8
2020-Jan-27 11:38 198 0 gusting 2 12.8
2020-Jan-27 11:33 189 12.8
2020-Jan-27 11:28 189 0 gusting 1 12.8
2020-Jan-27 11:23 189 2 gusting 2 12.8
2020-Jan-27 11:18 169 0 gusting 2 12.8
2020-Jan-27 11:13 160 0 gusting 1 12.8
2020-Jan-27 10:58 176 2 gusting 4 12.8
2020-Jan-27 10:53 168 2 gusting 2 12.8
2020-Jan-27 10:48 206 1 gusting 2 12.8
2020-Jan-27 10:43 217 1 gusting 2 12.8
2020-Jan-27 10:38 184 1 gusting 4 12.8
2020-Jan-27 10:18 268 3 gusting 5 12.8
2020-Jan-27 10:13 308 1 gusting 6 12.8
2020-Jan-27 10:08 264 2 gusting 5 12.8
2020-Jan-27 10:03 257 2 gusting 5 12.8
2020-Jan-27 09:58 253 1 gusting 6 12.8
2020-Jan-27 09:48 254 2 gusting 6 12.8
2020-Jan-27 09:43 274 6 gusting 10 13.3
2020-Jan-27 09:38 292 3 gusting 10 13.3
2020-Jan-27 09:23 285 6 gusting 13 13.9
2020-Jan-27 09:18 268 8 gusting 17 13.9
2020-Jan-27 09:13 236 8 gusting 14 13.9
2020-Jan-27 09:08 233 6 gusting 14 13.3
2020-Jan-27 08:48 248 8 gusting 17 13.9
2020-Jan-27 08:38 246 6 gusting 17 13.9
2020-Jan-27 08:33 231 5 gusting 12 13.9
2020-Jan-27 08:28 229 4 gusting 12 13.9
2020-Jan-27 08:23 208 6 gusting 13 13.9
2020-Jan-27 08:18 234 5 gusting 13 13.9
2020-Jan-27 08:13 219 7 gusting 12 13.9
2020-Jan-27 08:08 215 5 gusting 10 13.9
2020-Jan-27 08:03 221 5 gusting 18 13.9
2020-Jan-27 07:58 208 6 gusting 13 13.9
2020-Jan-27 07:48 146 7 gusting 17 13.9
2020-Jan-27 07:38 234 6 gusting 13 13.9
2020-Jan-27 07:33 236 6 gusting 13 13.9
2020-Jan-27 07:28 226 5 gusting 13 13.9
2020-Jan-27 07:18 235 5 gusting 12 13.9
2020-Jan-27 07:13 246 6 gusting 12 13.9
2020-Jan-27 07:03 204 7 gusting 15 13.9
2020-Jan-27 06:58 234 4 gusting 12 13.9
2020-Jan-27 06:48 266 6 gusting 11 13.9
2020-Jan-27 06:38 231 5 gusting 12 13.9
2020-Jan-27 06:33 252 6 gusting 13 13.9
2020-Jan-27 06:23 229 4 gusting 10 13.9
2020-Jan-27 06:18 180 6 gusting 19 13.9
2020-Jan-27 06:13 211 4 gusting 13 13.9
2020-Jan-27 06:08 216 6 gusting 14 13.9
2020-Jan-27 06:03 208 7 gusting 18 13.9
2020-Jan-27 05:58 207 8 gusting 18 13.9
2020-Jan-27 05:53 206 8 gusting 17 13.3
2020-Jan-27 05:38 239 4 gusting 10 13.9
2020-Jan-27 05:33 181 4 gusting 10 13.9
2020-Jan-27 05:28 230 2 gusting 6 13.9
2020-Jan-27 05:18 227 2 gusting 12 13.9
2020-Jan-27 05:13 197 6 gusting 13 13.9
2020-Jan-27 05:08 215 7 gusting 17 13.9
2020-Jan-27 05:03 177 7 gusting 12 13.9
2020-Jan-27 04:58 214 5 gusting 11 13.9
2020-Jan-27 04:53 217 4 gusting 10 13.9
2020-Jan-27 04:48 320 4 gusting 10 13.9
2020-Jan-27 04:43 201 5 gusting 13 13.9
2020-Jan-27 04:38 201 5 gusting 12 13.9
2020-Jan-27 04:33 065 4 gusting 10 13.9
2020-Jan-27 04:28 201 6 gusting 14 13.9
2020-Jan-27 04:08 185 5 gusting 10 13.9
2020-Jan-27 03:58 238 6 gusting 4 13.9
2020-Jan-27 03:53 238 6 gusting 10 13.9
2020-Jan-27 03:43 217 5 gusting 12 13.9
2020-Jan-27 03:38 264 1 gusting 13 13.9
2020-Jan-27 03:33 247 3 gusting 11 13.9
2020-Jan-27 03:18 148 3 gusting 10 13.9
2020-Jan-27 03:13 210 2 gusting 10 13.9
2020-Jan-27 03:08 249 2 gusting 12 13.9
2020-Jan-27 03:03 191 3 gusting 11 13.9
2020-Jan-27 02:58 224 3 gusting 6 13.9
2020-Jan-27 02:53 237 2 gusting 8 13.9
2020-Jan-27 02:48 261 2 gusting 6 13.9
2020-Jan-27 02:43 250 2 gusting 7 13.9
2020-Jan-27 02:33 236 1 gusting 7 13.9
2020-Jan-27 02:28 213 3 gusting 10 13.9
2020-Jan-27 02:23 246 2 gusting 10 13.9
2020-Jan-27 02:18 198 4 gusting 10 13.3
2020-Jan-27 02:13 198 2 gusting 6 13.3
2020-Jan-27 02:08 201 4 gusting 7 13.9
2020-Jan-27 02:03 183 4 gusting 11 13.9